Time;durP1;ratioP1;P1;durP2;ratioP2;P2;SDS_P1;SDS_P2;PMS_P1;PMS_P2;Temp;Humidity;BMP_temperature;BMP_pressure;BME280_temperature;BME280_humidity;BME280_pressure;Samples;Min_cycle;Max_cycle;Signal;HPM_P1;HPM_P2
2022/08/04 00:00:59;;;;;;;11.40;3.27;;;20.80;99.90;;;;;;5039232;28;20135;-71
2022/08/04 00:03:32;;;;;;;9.05;3.20;;;20.70;99.90;;;;;;5038402;28;20106;-70
2022/08/04 00:06:03;;;;;;;11.18;3.83;;;20.70;99.90;;;;;;5057182;28;20440;-71
2022/08/04 00:08:41;;;;;;;8.45;3.38;;;20.70;99.90;;;;;;5038643;28;20060;-69
2022/08/04 00:11:13;;;;;;;9.68;4.15;;;20.70;99.90;;;;;;5037945;28;20088;-70
2022/08/04 00:13:44;;;;;;;6.95;3.33;;;20.60;99.90;;;;;;5019523;28;20131;-70
2022/08/04 00:16:12;;;;;;;;;;;20.60;99.90;;;;;;5019741;28;20061;-70
2022/08/04 00:18:41;;;;;;;11.10;3.88;;;20.60;99.90;;;;;;5036823;28;19928;-69
2022/08/04 00:21:12;;;;;;;14.80;4.18;;;20.60;99.90;;;;;;5036533;28;20053;-69
2022/08/04 00:23:42;;;;;;;9.60;3.75;;;20.60;99.90;;;;;;5018475;28;20136;-70
2022/08/04 00:26:11;;;;;;;7.03;4.20;;;20.50;99.90;;;;;;5038679;28;20516;-70
2022/08/04 00:28:39;;;;;;;8.10;3.42;;;20.50;99.90;;;;;;5038564;28;20095;-69
2022/08/04 00:31:08;;;;;;;10.80;3.63;;;20.50;99.90;;;;;;5055437;28;20048;-69
2022/08/04 00:33:36;;;;;;;10.45;4.00;;;20.50;99.90;;;;;;5038668;28;20049;-69
2022/08/04 00:36:03;;;;;;;11.88;4.18;;;20.50;99.90;;;;;;5038553;28;20057;-69
2022/08/04 00:38:30;;;;;;;9.23;3.83;;;20.50;99.90;;;;;;5037479;28;20140;-69
2022/08/04 00:41:08;;;;;;;8.07;4.03;;;20.50;99.90;;;;;;5038030;28;20069;-70
2022/08/04 00:43:45;;;;;;;8.75;3.70;;;20.40;99.90;;;;;;5036400;28;20049;-69
2022/08/04 00:46:49;;;;;;;9.07;3.88;;;20.40;99.90;;;;;;5017963;28;20053;-70
2022/08/04 00:49:46;;;;;;;13.27;4.25;;;20.40;99.90;;;;;;5014918;28;20482;-70
2022/08/04 00:52:37;;;;;;;12.35;3.92;;;20.40;99.90;;;;;;5013671;28;20107;-70
2022/08/04 00:55:06;;;;;;;;;;;20.40;99.90;;;;;;5018844;28;20084;-70
2022/08/04 00:57:50;;;;;;;10.63;4.15;;;20.40;99.90;;;;;;5049480;28;19975;-70
2022/08/04 01:00:19;;;;;;;11.90;4.15;;;20.30;99.90;;;;;;5036785;28;20565;-70
2022/08/04 01:03:00;;;;;;;12.07;5.28;;;20.30;99.90;;;;;;5056084;28;20059;-70
2022/08/04 01:05:36;;;;;;;9.32;4.30;;;20.30;99.90;;;;;;5037296;28;20060;-71
2022/08/04 01:08:20;;;;;;;11.98;4.68;;;20.30;99.90;;;;;;5055877;28;20107;-69
2022/08/04 01:10:58;;;;;;;13.82;4.55;;;20.30;99.90;;;;;;5037433;28;20052;-70
2022/08/04 01:13:50;;;;;;;9.82;4.28;;;20.30;99.90;;;;;;5036675;28;20052;-70
2022/08/04 01:16:22;;;;;;;9.52;4.07;;;20.30;99.90;;;;;;5047004;28;20053;-71
2022/08/04 01:18:56;;;;;;;14.48;5.07;;;20.30;99.90;;;;;;5037439;28;20052;-71
2022/08/04 01:21:46;;;;;;;13.98;4.93;;;20.30;99.90;;;;;;5054693;28;20087;-70
2022/08/04 01:24:29;;;;;;;9.13;5.20;;;20.20;99.90;;;;;;5042352;28;20056;-70
2022/08/04 01:27:01;;;;;;;11.18;4.25;;;20.20;99.90;;;;;;5054386;28;20307;-70
2022/08/04 01:29:33;;;;;;;12.88;4.68;;;20.20;99.90;;;;;;5037414;28;20477;-69
2022/08/04 01:32:03;;;;;;;11.13;4.90;;;20.20;99.90;;;;;;5037544;28;20053;-71
2022/08/04 01:34:38;;;;;;;9.83;4.73;;;20.20;99.90;;;;;;5036631;28;20485;-71
2022/08/04 01:37:11;;;;;;;13.10;4.97;;;20.20;99.90;;;;;;5037237;28;20061;-70
2022/08/04 01:39:50;;;;;;;12.60;5.05;;;20.20;99.90;;;;;;5037163;28;20523;-70
2022/08/04 01:42:21;;;;;;;11.10;5.07;;;20.20;99.90;;;;;;5036022;28;20497;-70
2022/08/04 01:44:51;;;;;;;12.30;4.85;;;20.20;99.90;;;;;;5054256;28;20135;-70
2022/08/04 01:47:21;;;;;;;14.50;4.95;;;20.20;99.90;;;;;;5037595;28;20049;-70
2022/08/04 01:49:50;;;;;;;11.55;5.20;;;20.20;99.90;;;;;;5054030;28;20064;-70
2022/08/04 01:52:18;;;;;;;12.70;5.77;;;20.20;99.90;;;;;;5054737;28;20053;-70
2022/08/04 01:54:47;;;;;;;8.23;4.53;;;20.20;99.90;;;;;;5036333;28;20705;-70
2022/08/04 01:57:17;;;;;;;17.88;5.15;;;20.20;99.90;;;;;;5037058;28;20408;-70
2022/08/04 01:59:47;;;;;;;11.37;4.93;;;20.20;99.90;;;;;;5054847;28;20456;-69
2022/08/04 02:02:15;;;;;;;15.50;5.05;;;20.10;99.90;;;;;;5053960;28;20283;-70
2022/08/04 02:04:42;;;;;;;13.60;6.55;;;20.20;99.90;;;;;;5036381;28;20106;-70
2022/08/04 02:07:27;;;;;;;11.52;5.60;;;20.10;99.90;;;;;;5054734;28;20063;-69
2022/08/04 02:10:05;;;;;;;10.30;5.25;;;20.10;99.90;;;;;;5036275;28;20103;-70
2022/08/04 02:12:54;;;;;;;10.07;5.25;;;20.10;99.90;;;;;;5036596;28;20106;-69
2022/08/04 02:15:27;;;;;;;10.45;5.32;;;20.10;99.90;;;;;;5036835;28;20110;-70
2022/08/04 02:18:02;;;;;;;9.75;5.28;;;20.10;99.90;;;;;;5035313;28;20056;-69
2022/08/04 02:20:33;;;;;;;8.63;5.13;;;20.10;99.90;;;;;;5053959;28;20052;-69
2022/08/04 02:23:01;;;;;;;11.07;5.05;;;20.10;99.90;;;;;;5035499;28;20057;-70
2022/08/04 02:25:32;;;;;;;14.70;5.72;;;20.10;99.90;;;;;;5054381;28;20049;-70
2022/08/04 02:28:12;;;;;;;10.40;5.07;;;20.10;99.90;;;;;;5053675;28;20492;-69
2022/08/04 02:30:50;;;;;;;12.82;5.50;;;20.10;99.90;;;;;;5035142;28;20056;-68
2022/08/04 02:33:23;;;;;;;15.63;6.07;;;20.10;99.90;;;;;;5054216;28;20052;-70
2022/08/04 02:35:53;;;;;;;11.65;6.20;;;20.00;99.90;;;;;;5054263;28;20049;-70
2022/08/04 02:38:23;;;;;;;;;;;20.00;99.90;;;;;;5035556;28;20102;-71
2022/08/04 02:40:52;;;;;;;10.60;5.65;;;20.00;99.90;;;;;;5035306;28;19979;-70
2022/08/04 02:43:20;;;;;;;11.82;6.05;;;20.00;99.90;;;;;;5053706;28;20099;-70
2022/08/04 02:45:48;;;;;;;15.07;6.20;;;20.00;99.90;;;;;;5035292;28;20087;-70
2022/08/04 02:48:18;;;;;;;12.60;5.65;;;20.00;99.90;;;;;;5036069;28;20056;-70
2022/08/04 02:50:46;;;;;;;14.07;5.95;;;20.00;99.90;;;;;;5053629;28;20049;-69
2022/08/04 02:53:18;;;;;;;13.85;5.63;;;19.90;99.90;;;;;;5034922;28;20553;-69
2022/08/04 02:55:45;;;;;;;12.90;6.03;;;20.00;99.90;;;;;;5053522;28;20071;-69
2022/08/04 02:58:15;;;;;;;10.45;5.53;;;19.90;99.90;;;;;;5052616;28;20059;-69
2022/08/04 03:00:44;;;;;;;14.25;5.82;;;20.00;99.90;;;;;;5053556;28;20137;-70
2022/08/04 03:03:21;;;;;;;15.23;5.43;;;19.90;99.90;;;;;;5036110;28;20064;-70
2022/08/04 03:06:11;;;;;;;14.25;6.03;;;19.90;99.90;;;;;;5052636;28;20053;-69
2022/08/04 03:09:00;;;;;;;13.38;5.85;;;19.90;99.90;;;;;;5053192;28;20056;-70
2022/08/04 03:12:02;;;;;;;11.48;6.53;;;20.00;99.90;;;;;;5053291;28;20052;-70
2022/08/04 03:15:04;;;;;;;11.27;5.50;;;20.00;99.90;;;;;;5048098;28;20102;-69
2022/08/04 03:17:51;;;;;;;14.23;6.22;;;20.00;99.90;;;;;;5036010;28;20118;-70
2022/08/04 03:21:08;;;;;;;11.32;5.90;;;19.90;99.90;;;;;;5034866;28;20432;-70
2022/08/04 03:24:08;;;;;;;14.52;5.10;;;20.00;99.90;;;;;;4991529;28;20146;-69
2022/08/04 03:27:06;;;;;;;9.15;5.00;;;19.90;99.90;;;;;;5034594;28;20053;-70
2022/08/04 03:29:56;;;;;;;13.82;6.03;;;19.90;99.90;;;;;;5018586;28;20386;-70
2022/08/04 03:32:59;;;;;;;12.55;5.72;;;19.90;99.90;;;;;;5035264;28;20063;-70
2022/08/04 03:36:05;;;;;;;8.70;5.32;;;19.90;99.90;;;;;;5034264;28;20504;-72
2022/08/04 03:39:02;;;;;;;15.50;5.22;;;19.90;99.90;;;;;;4936351;28;20051;-69
2022/08/04 03:41:54;;;;;;;12.50;4.88;;;19.90;99.90;;;;;;5012904;28;20403;-70
2022/08/04 03:44:54;;;;;;;10.55;4.80;;;20.10;99.90;;;;;;5013705;28;20053;-70
2022/08/04 03:47:40;;;;;;;13.10;4.90;;;20.20;99.90;;;;;;5013320;28;20092;-70
2022/08/04 03:50:32;;;;;;;13.50;4.90;;;20.20;99.90;;;;;;5013626;28;20103;-70
2022/08/04 03:53:30;;;;;;;10.55;4.90;;;20.30;99.90;;;;;;5030909;28;20053;-70
2022/08/04 03:56:27;;;;;;;12.77;4.25;;;20.40;99.90;;;;;;5015792;28;20068;-70
2022/08/04 03:59:32;;;;;;;12.13;5.30;;;20.40;99.90;;;;;;5013397;28;20050;-71
2022/08/04 04:02:38;;;;;;;10.27;4.90;;;20.50;99.90;;;;;;5015244;28;20061;-71
2022/08/04 04:05:37;;;;;;;10.82;4.90;;;20.60;99.90;;;;;;5017511;28;20050;-70
2022/08/04 04:08:37;;;;;;;10.73;4.93;;;20.60;99.90;;;;;;5027068;28;20497;-69
2022/08/04 04:11:38;;;;;;;7.38;4.20;;;20.70;99.90;;;;;;4989346;28;20052;-69
2022/08/04 04:14:18;;;;;;;8.68;4.68;;;20.70;99.90;;;;;;5024772;28;20057;-70
2022/08/04 04:16:58;;;;;;;14.97;5.20;;;20.80;99.90;;;;;;5012777;28;20144;-71
2022/08/04 04:19:54;;;;;;;10.52;4.45;;;20.80;99.90;;;;;;5012877;28;20064;-70
2022/08/04 04:22:35;;;;;;;10.55;5.53;;;20.90;99.90;;;;;;5033032;28;20045;-69
2022/08/04 04:25:09;;;;;;;11.68;4.70;;;21.00;99.90;;;;;;5014334;28;20046;-70
2022/08/04 04:27:51;;;;;;;11.05;5.18;;;21.00;99.90;;;;;;5032703;28;20110;-71
2022/08/04 04:30:23;;;;;;;15.23;5.97;;;21.00;99.90;;;;;;5012728;28;20042;-70
2022/08/04 04:33:16;;;;;;;10.90;4.55;;;21.00;99.90;;;;;;5030962;28;20053;-70
2022/08/04 04:35:53;;;;;;;15.80;6.32;;;20.90;99.90;;;;;;5013400;28;20072;-70
2022/08/04 04:38:34;;;;;;;10.57;5.25;;;20.90;99.90;;;;;;5021647;28;20065;-71
2022/08/04 04:41:15;;;;;;;13.80;6.07;;;20.90;99.90;;;;;;5036915;28;20045;-70
2022/08/04 04:44:03;;;;;;;12.23;6.20;;;20.80;99.90;;;;;;5016155;28;20505;-70
2022/08/04 04:46:41;;;;;;;18.10;6.32;;;20.80;99.90;;;;;;5034887;28;20124;-71
2022/08/04 04:49:17;;;;;;;16.65;6.35;;;20.80;99.90;;;;;;5034565;28;20049;-70
2022/08/04 04:51:50;;;;;;;15.48;6.18;;;20.80;99.90;;;;;;5024705;28;20489;-70
2022/08/04 04:54:26;;;;;;;11.95;6.15;;;20.80;99.90;;;;;;5037481;28;20084;-71
2022/08/04 04:57:03;;;;;;;21.42;6.45;;;20.80;99.90;;;;;;5018133;28;20490;-71
2022/08/04 04:59:34;;;;;;;16.00;6.43;;;20.90;99.90;;;;;;5016847;28;20045;-70
2022/08/04 05:02:33;;;;;;;12.35;6.18;;;21.00;99.90;;;;;;5035083;28;20045;-71
2022/08/04 05:05:30;;;;;;;15.65;6.57;;;21.00;99.90;;;;;;5015932;28;20115;-70
2022/08/04 05:08:23;;;;;;;12.77;6.90;;;21.10;99.90;;;;;;5037167;28;20049;-70
2022/08/04 05:11:12;;;;;;;14.40;7.00;;;21.10;99.90;;;;;;5016537;28;20050;-70
2022/08/04 05:13:44;;;;;;;16.38;7.03;;;21.20;99.90;;;;;;4986665;28;20053;-70
2022/08/04 05:16:17;;;;;;;14.95;6.25;;;21.20;99.90;;;;;;5021102;28;20551;-70
2022/08/04 05:18:52;;;;;;;15.82;6.40;;;21.30;99.90;;;;;;5034867;28;20387;-70
2022/08/04 05:21:37;;;;;;;12.38;5.43;;;21.40;99.90;;;;;;5025399;28;20048;-70
2022/08/04 05:24:08;;;;;;;12.77;5.88;;;21.50;99.90;;;;;;5054454;28;20049;-70
2022/08/04 05:26:39;;;;;;;12.98;5.95;;;21.50;99.90;;;;;;5035026;28;20091;-69
2022/08/04 05:29:10;;;;;;;11.15;6.85;;;21.70;99.90;;;;;;5016153;28;20509;-69
2022/08/04 05:31:41;;;;;;;14.30;6.35;;;21.80;99.90;;;;;;5041579;28;20552;-71
2022/08/04 05:34:19;;;;;;;12.35;5.85;;;21.90;99.90;;;;;;5021741;28;20049;-71
2022/08/04 05:36:49;;;;;;;9.77;5.30;;;22.00;99.90;;;;;;5021669;28;20056;-71
2022/08/04 05:39:20;;;;;;;14.65;7.18;;;22.10;99.90;;;;;;5030764;28;20061;-70
2022/08/04 05:41:49;;;;;;;15.10;6.05;;;22.30;99.90;;;;;;5033638;28;20100;-70
2022/08/04 05:44:18;;;;;;;10.02;6.13;;;22.30;99.90;;;;;;5027003;28;20055;-71
2022/08/04 05:46:48;;;;;;;15.85;6.05;;;22.40;99.90;;;;;;5037310;28;20049;-71
2022/08/04 05:49:17;;;;;;;12.23;5.75;;;22.50;99.90;;;;;;5022267;28;20049;-71
2022/08/04 05:51:46;;;;;;;11.23;6.32;;;22.60;99.90;;;;;;5014471;28;20042;-70
2022/08/04 05:54:14;;;;;;;10.45;6.22;;;22.70;99.90;;;;;;5015639;28;20140;-70
2022/08/04 05:56:42;;;;;;;10.73;5.53;;;22.70;99.90;;;;;;5014488;28;20489;-71
2022/08/04 05:59:11;;;;;;;10.45;5.40;;;22.80;99.90;;;;;;5015091;28;20052;-70
2022/08/04 06:01:38;;;;;;;14.38;5.50;;;22.90;99.90;;;;;;5015782;28;20053;-70
2022/08/04 06:04:06;;;;;;;13.10;6.35;;;23.10;99.90;;;;;;5024282;28;20068;-70
2022/08/04 06:06:35;;;;;;;12.13;5.95;;;23.20;99.90;;;;;;5020879;28;20095;-71
2022/08/04 06:09:02;;;;;;;14.02;6.50;;;23.40;99.90;;;;;;5043442;28;20511;-70
2022/08/04 06:11:30;;;;;;;11.50;5.43;;;23.60;99.90;;;;;;5016435;28;20041;-70
2022/08/04 06:13:59;;;;;;;9.88;5.57;;;23.80;99.90;;;;;;5044335;28;20057;-71
2022/08/04 06:16:34;;;;;;;10.90;5.53;;;24.10;99.90;;;;;;5028196;28;20049;-71
2022/08/04 06:19:05;;;;;;;16.02;5.70;;;24.20;99.90;;;;;;5051552;28;20132;-69
2022/08/04 06:21:37;;;;;;;9.30;5.13;;;24.40;99.90;;;;;;5053701;28;20570;-69
2022/08/04 06:24:09;;;;;;;8.82;4.78;;;24.50;99.90;;;;;;5035101;28;20489;-70
2022/08/04 06:26:39;;;;;;;12.73;5.72;;;24.70;99.90;;;;;;5036050;28;20057;-71
2022/08/04 06:29:14;;;;;;;12.52;5.05;;;24.80;99.90;;;;;;5053064;28;20053;-71
2022/08/04 06:31:45;;;;;;;11.02;5.40;;;25.00;99.90;;;;;;5035964;28;20045;-71
2022/08/04 06:34:14;;;;;;;10.07;5.03;;;25.10;99.90;;;;;;5035732;28;20060;-71
2022/08/04 06:36:42;;;;;;;11.20;5.32;;;25.10;99.90;;;;;;5035135;28;20056;-70
2022/08/04 06:39:10;;;;;;;11.68;5.03;;;25.30;99.90;;;;;;5035915;28;20484;-71
2022/08/04 06:41:38;;;;;;;9.57;5.22;;;25.40;99.90;;;;;;5035507;28;20106;-71
2022/08/04 06:44:08;;;;;;;9.95;4.90;;;25.70;99.90;;;;;;5035379;28;20056;-70
2022/08/04 06:46:37;;;;;;;12.77;4.97;;;25.90;99.90;;;;;;5053238;28;20098;-71
2022/08/04 06:49:04;;;;;;;10.70;4.33;;;26.00;99.90;;;;;;5032391;28;20473;-71
2022/08/04 06:51:33;;;;;;;8.98;4.60;;;26.10;99.90;;;;;;5052351;28;20361;-71
2022/08/04 06:54:01;;;;;;;12.95;4.68;;;26.30;99.90;;;;;;5035351;28;20053;-71
2022/08/04 06:56:30;;;;;;;7.82;4.25;;;26.40;99.90;;;;;;5053078;28;20052;-71
2022/08/04 06:58:59;;;;;;;7.67;4.33;;;26.50;99.90;;;;;;5034666;28;20133;-71
2022/08/04 07:01:27;;;;;;;14.68;4.35;;;26.40;99.90;;;;;;5053170;28;20107;-72
2022/08/04 07:03:54;;;;;;;11.00;4.10;;;26.40;99.90;;;;;;5034945;28;20056;-72
2022/08/04 07:06:22;;;;;;;9.88;4.68;;;26.50;99.90;;;;;;5052370;28;20045;-71
2022/08/04 07:09:35;;;;;;;10.25;4.20;;;26.50;99.90;;;;;;5023599;28;20061;-71
2022/08/04 07:12:05;;;;;;;11.48;5.03;;;26.80;99.90;;;;;;4993576;28;20119;-72
2022/08/04 07:14:34;;;;;;;8.38;4.18;;;27.20;99.90;;;;;;5046073;28;20095;-70
2022/08/04 07:17:03;;;;;;;8.98;4.53;;;27.60;99.90;;;;;;5053110;28;20059;-71
2022/08/04 07:19:31;;;;;;;7.85;3.50;;;27.80;99.90;;;;;;5033949;28;20139;-72
2022/08/04 07:21:59;;;;;;;8.18;4.10;;;28.10;99.90;;;;;;5049087;28;20121;-71
2022/08/04 07:24:30;;;;;;;9.35;3.80;;;28.40;99.90;;;;;;5035184;28;20049;-72
2022/08/04 07:26:57;;;;;;;9.27;3.92;;;28.90;99.90;;;;;;5034411;28;20501;-71
2022/08/04 07:29:26;;;;;;;10.00;4.20;;;29.10;99.90;;;;;;5053059;28;20148;-71
2022/08/04 07:31:53;;;;;;;8.13;3.38;;;29.50;99.90;;;;;;5052625;28;20045;-72
2022/08/04 07:34:21;;;;;;;9.05;3.25;;;29.80;99.80;;;;;;5033942;28;20052;-71
2022/08/04 07:36:50;;;;;;;9.50;3.42;;;29.80;99.40;;;;;;5052312;28;20114;-72
2022/08/04 07:39:17;;;;;;;6.70;2.90;;;29.60;99.40;;;;;;5052135;28;20048;-71
2022/08/04 07:41:44;;;;;;;7.88;3.08;;;29.80;99.50;;;;;;5034666;28;20110;-72
2022/08/04 07:44:14;;;;;;;9.30;3.50;;;30.00;99.20;;;;;;5035010;28;20171;-72
2022/08/04 07:46:45;;;;;;;7.32;3.30;;;30.40;98.60;;;;;;5051805;28;20053;-72
2022/08/04 07:49:12;;;;;;;9.15;2.78;;;30.60;98.20;;;;;;5052532;28;20071;-71
2022/08/04 07:51:39;;;;;;;6.20;2.97;;;30.80;97.70;;;;;;5034600;28;20045;-72
2022/08/04 07:54:09;;;;;;;7.32;2.65;;;31.00;97.30;;;;;;5051914;28;20052;-72
2022/08/04 07:56:38;;;;;;;7.82;3.17;;;30.90;96.50;;;;;;5034834;28;20061;-72
2022/08/04 07:59:06;;;;;;;13.48;4.00;;;31.10;96.60;;;;;;5034785;28;20052;-72
2022/08/04 08:01:34;;;;;;;8.77;4.35;;;30.60;96.50;;;;;;5051344;28;20387;-72
2022/08/04 08:04:04;;;;;;;11.02;4.63;;;30.50;97.10;;;;;;5052167;28;20057;-72
2022/08/04 08:06:31;;;;;;;12.60;4.47;;;30.60;97.30;;;;;;5030678;28;20057;-72
2022/08/04 08:08:59;;;;;;;9.18;4.82;;;30.70;97.20;;;;;;5051481;28;20060;-72
2022/08/04 08:11:27;;;;;;;9.05;4.20;;;30.90;96.80;;;;;;5034318;28;20041;-71
2022/08/04 08:13:55;;;;;;;12.57;4.78;;;31.50;96.40;;;;;;5034481;28;20493;-72
2022/08/04 08:16:22;;;;;;;9.82;4.63;;;32.00;95.80;;;;;;5037090;28;20057;-71
2022/08/04 08:18:49;;;;;;;11.55;5.53;;;32.20;94.90;;;;;;5055887;28;20103;-73
2022/08/04 08:21:19;;;;;;;9.52;4.90;;;32.70;94.50;;;;;;5056492;28;20452;-73
2022/08/04 08:23:46;;;;;;;6.85;4.47;;;32.80;93.20;;;;;;5036638;28;20107;-72
2022/08/04 08:26:13;;;;;;;9.02;4.78;;;32.40;93.80;;;;;;5038795;28;20058;-72
2022/08/04 08:28:40;;;;;;;9.23;4.75;;;31.90;93.90;;;;;;5037078;28;20057;-72
2022/08/04 08:31:07;;;;;;;8.35;4.43;;;31.50;94.10;;;;;;5038275;28;20122;-71
2022/08/04 08:33:35;;;;;;;7.65;4.57;;;31.50;94.20;;;;;;5055846;28;20052;-72
2022/08/04 08:36:07;;;;;;;9.07;4.95;;;31.80;94.20;;;;;;5037090;28;20114;-73
2022/08/04 08:38:48;;;;;;;9.25;3.90;;;31.80;93.70;;;;;;5055416;28;20141;-72
2022/08/04 08:41:48;;;;;;;8.00;4.30;;;32.60;93.30;;;;;;5037872;28;20052;-73
2022/08/04 08:45:00;;;;;;;10.05;4.63;;;33.00;92.80;;;;;;4998876;28;20061;-72
2022/08/04 08:47:39;;;;;;;12.43;4.13;;;32.90;91.80;;;;;;5055417;28;20056;-72
2022/08/04 08:50:59;;;;;;;8.98;3.95;;;33.10;91.70;;;;;;5054841;28;20060;-71
2022/08/04 08:53:52;;;;;;;11.00;3.53;;;32.90;91.30;;;;;;5055515;28;20049;-72
2022/08/04 08:56:32;;;;;;;8.80;4.07;;;33.00;91.50;;;;;;5037432;28;20049;-73
2022/08/04 08:59:21;;;;;;;7.68;4.18;;;32.90;91.90;;;;;;5054714;28;20059;-72
2022/08/04 09:02:02;;;;;;;9.80;4.57;;;33.00;91.40;;;;;;5037698;28;20535;-72
2022/08/04 09:05:02;;;;;;;9.60;3.45;;;33.70;91.60;;;;;;5053972;28;20060;-72
2022/08/04 09:07:44;;;;;;;9.50;4.85;;;34.20;90.30;;;;;;5043457;28;20053;-72
2022/08/04 09:10:20;;;;;;;9.45;4.30;;;34.50;90.20;;;;;;5037174;28;20049;-73
2022/08/04 09:12:52;;;;;;;12.40;4.15;;;34.30;89.80;;;;;;5036456;28;20084;-72
2022/08/04 09:15:28;;;;;;;7.80;4.35;;;33.90;90.30;;;;;;5037567;28;20057;-71
2022/08/04 09:18:02;;;;;;;7.97;3.40;;;34.00;90.10;;;;;;5036297;28;20057;-72
2022/08/04 09:20:34;;;;;;;10.63;3.90;;;34.00;90.10;;;;;;5037132;28;20060;-72
2022/08/04 09:23:13;;;;;;;7.95;3.92;;;34.20;89.80;;;;;;5037135;28;20045;-73
2022/08/04 09:25:46;;;;;;;;;;;33.70;89.80;;;;;;5054274;28;20128;-72
2022/08/04 09:28:20;;;;;;;10.45;4.28;;;33.70;90.30;;;;;;5053906;28;20387;-72
2022/08/04 09:30:54;;;;;;;11.55;4.32;;;33.80;90.10;;;;;;5054675;28;20072;-72
2022/08/04 09:33:30;;;;;;;16.48;4.65;;;34.30;89.40;;;;;;5036077;28;20091;-73
2022/08/04 09:36:02;;;;;;;8.93;3.85;;;34.30;88.90;;;;;;5036984;28;20570;-72
2022/08/04 09:38:35;;;;;;;7.95;3.20;;;34.60;89.10;;;;;;5053964;28;20057;-72
2022/08/04 09:41:11;;;;;;;9.60;3.10;;;35.00;87.00;;;;;;5052246;28;20544;-71
2022/08/04 09:43:49;;;;;;;6.90;2.60;;;35.60;86.40;;;;;;5016525;28;20107;-72
2022/08/04 09:46:22;;;;;;;5.70;2.28;;;35.90;85.40;;;;;;5034560;28;20091;-72
2022/08/04 09:48:57;;;;;;;6.20;2.63;;;36.10;83.80;;;;;;5041456;28;20057;-73
2022/08/04 09:51:36;;;;;;;7.38;2.90;;;36.20;82.40;;;;;;5042527;28;20090;-72
2022/08/04 09:54:09;;;;;;;6.03;2.80;;;36.10;82.30;;;;;;5015174;28;20069;-72
2022/08/04 09:56:42;;;;;;;8.70;2.60;;;35.60;82.30;;;;;;5035029;28;20406;-72
2022/08/04 09:59:20;;;;;;;6.80;2.58;;;35.20;82.80;;;;;;5035501;28;20132;-73
2022/08/04 10:01:53;;;;;;;9.45;2.25;;;34.40;83.30;;;;;;5027575;28;20045;-72
2022/08/04 10:04:21;;;;;;;5.60;2.22;;;34.10;84.00;;;;;;5035123;28;20060;-72
2022/08/04 10:07:15;;;;;;;2.80;1.65;;;34.30;84.30;;;;;;5032517;28;20126;-73
2022/08/04 10:10:01;;;;;;;4.78;1.40;;;34.50;81.80;;;;;;5033351;28;20386;-73
2022/08/04 10:12:42;;;;;;;6.00;1.65;;;34.70;80.20;;;;;;5018369;28;20052;-72
2022/08/04 10:15:18;;;;;;;17.17;1.92;;;35.00;78.20;;;;;;5021593;28;20115;-72
2022/08/04 10:18:11;;;;;;;6.50;2.00;;;35.10;78.30;;;;;;5015490;28;20497;-73
2022/08/04 10:21:03;;;;;;;8.85;1.73;;;35.00;78.50;;;;;;5013891;28;20057;-72
2022/08/04 10:24:11;;;;;;;7.55;2.03;;;34.50;79.40;;;;;;4991295;28;20054;-73
2022/08/04 10:26:48;;;;;;;6.93;2.58;;;34.20;80.70;;;;;;5018437;28;20045;-72
2022/08/04 10:29:22;;;;;;;6.20;2.03;;;33.90;81.70;;;;;;5023161;28;20353;-73
2022/08/04 10:31:57;;;;;;;10.85;2.42;;;33.30;82.80;;;;;;5032814;28;20072;-72
2022/08/04 10:34:28;;;;;;;6.40;2.00;;;33.50;83.70;;;;;;5032886;28;20050;-72
2022/08/04 10:37:00;;;;;;;7.18;2.22;;;33.40;84.50;;;;;;5021929;28;20049;-72
2022/08/04 10:39:37;;;;;;;11.80;2.30;;;33.30;84.60;;;;;;5033232;28;20551;-72
2022/08/04 10:42:13;;;;;;;4.93;2.30;;;33.10;85.20;;;;;;5001501;28;20050;-71
2022/08/04 10:44:55;;;;;;;7.50;2.25;;;33.20;85.20;;;;;;4996410;28;20379;-72
2022/08/04 10:47:27;;;;;;;7.57;2.05;;;33.30;85.40;;;;;;5032580;28;20169;-72
2022/08/04 10:49:59;;;;;;;9.02;2.65;;;33.30;86.00;;;;;;5014958;28;20056;-72
2022/08/04 10:52:34;;;;;;;10.75;2.42;;;33.20;86.40;;;;;;5015606;28;20042;-72
2022/08/04 10:55:08;;;;;;;7.88;2.42;;;33.10;87.30;;;;;;5033593;28;20369;-72
2022/08/04 10:57:40;;;;;;;5.63;1.85;;;33.10;87.80;;;;;;5015520;28;20054;-72
2022/08/04 11:00:13;;;;;;;5.57;1.85;;;33.10;87.50;;;;;;5007086;28;20089;-71
2022/08/04 11:02:46;;;;;;;8.20;1.80;;;33.30;86.80;;;;;;5015715;28;20481;-72
2022/08/04 11:05:24;;;;;;;3.25;1.40;;;33.20;86.70;;;;;;5031269;28;20049;-72
2022/08/04 11:07:56;;;;;;;8.57;1.77;;;32.80;86.80;;;;;;5015823;28;20057;-72
2022/08/04 11:10:28;;;;;;;3.90;1.33;;;32.90;87.20;;;;;;5031356;28;20478;-72
2022/08/04 11:13:00;;;;;;;6.45;1.58;;;33.10;86.80;;;;;;5014119;28;20148;-72
2022/08/04 11:15:36;;;;;;;4.25;1.42;;;33.20;85.80;;;;;;5032448;28;20057;-72
2022/08/04 11:18:08;;;;;;;3.50;1.10;;;33.20;85.70;;;;;;5036564;28;20076;-71
2022/08/04 11:20:42;;;;;;;7.38;1.50;;;33.20;84.90;;;;;;5055418;28;20374;-72
2022/08/04 11:23:12;;;;;;;5.72;1.60;;;32.90;85.10;;;;;;5053140;28;20247;-71
2022/08/04 11:25:50;;;;;;;4.78;1.10;;;32.80;85.50;;;;;;5055956;28;20107;-71
2022/08/04 11:28:28;;;;;;;4.90;1.70;;;32.60;85.20;;;;;;5034680;28;20135;-73
2022/08/04 11:31:01;;;;;;;4.80;1.30;;;32.40;85.80;;;;;;5051852;28;20106;-72
2022/08/04 11:33:44;;;;;;;3.13;1.13;;;32.30;86.20;;;;;;5034368;28;20098;-73
2022/08/04 11:36:22;;;;;;;3.92;1.20;;;32.40;87.10;;;;;;5034946;28;20107;-73
2022/08/04 11:38:59;;;;;;;4.07;1.10;;;32.70;86.20;;;;;;5034503;28;20452;-73
2022/08/04 11:41:37;;;;;;;4.35;1.42;;;33.00;85.40;;;;;;5052711;28;20398;-72
2022/08/04 11:44:05;;;;;;;4.13;1.00;;;32.90;84.40;;;;;;5053315;28;20102;-72
2022/08/04 11:46:42;;;;;;;4.93;1.42;;;32.50;85.00;;;;;;5034567;28;20049;-72
2022/08/04 11:49:20;;;;;;;2.60;1.13;;;32.50;84.90;;;;;;5034875;28;20049;-72
2022/08/04 11:51:51;;;;;;;5.03;1.20;;;32.70;84.30;;;;;;5035342;28;20057;-72
2022/08/04 11:54:19;;;;;;;2.10;1.00;;;32.90;83.90;;;;;;5033941;28;20451;-72
2022/08/04 11:56:46;;;;;;;3.13;1.00;;;32.90;84.40;;;;;;5034644;28;20064;-72
2022/08/04 11:59:13;;;;;;;6.25;1.30;;;32.80;83.80;;;;;;5034451;28;20056;-72
2022/08/04 12:01:54;;;;;;;6.82;1.38;;;32.40;84.30;;;;;;5033947;28;20110;-72
2022/08/04 12:04:32;;;;;;;6.35;1.48;;;32.20;83.80;;;;;;5034943;28;20543;-70
2022/08/04 12:07:07;;;;;;;2.67;1.02;;;31.90;84.30;;;;;;5051635;28;20079;-72
2022/08/04 12:09:47;;;;;;;2.67;1.00;;;31.50;83.90;;;;;;5034760;28;20056;-71
2022/08/04 12:12:24;;;;;;;2.60;1.10;;;31.40;83.90;;;;;;5034220;28;20048;-72
2022/08/04 12:14:58;;;;;;;5.65;1.13;;;31.20;83.80;;;;;;5051953;28;20132;-71
2022/08/04 12:17:32;;;;;;;3.88;1.10;;;31.20;84.20;;;;;;5034863;28;20056;-71
2022/08/04 12:20:05;;;;;;;2.88;1.30;;;30.90;84.10;;;;;;5052752;28;20107;-71
2022/08/04 12:22:35;;;;;;;3.17;1.20;;;30.70;83.90;;;;;;5051469;28;20092;-72
2022/08/04 12:25:06;;;;;;;2.92;1.60;;;30.50;84.20;;;;;;5051718;28;20049;-71
2022/08/04 12:27:37;;;;;;;2.58;1.17;;;30.40;84.80;;;;;;5034323;28;20106;-72
2022/08/04 12:30:05;;;;;;;4.47;1.15;;;30.40;85.20;;;;;;5051846;28;20155;-72
2022/08/04 12:32:43;;;;;;;2.30;0.90;;;30.20;84.50;;;;;;5034135;28;20096;-72
2022/08/04 12:35:29;;;;;;;2.78;1.17;;;30.30;85.30;;;;;;5051305;28;20094;-71
2022/08/04 12:38:01;;;;;;;2.78;1.08;;;30.20;84.80;;;;;;5034808;28;20100;-72
2022/08/04 12:40:36;;;;;;;4.13;0.90;;;30.20;84.60;;;;;;5034701;28;20144;-71
2022/08/04 12:43:09;;;;;;;6.38;1.20;;;30.00;84.90;;;;;;5050402;28;20095;-71
2022/08/04 12:45:42;;;;;;;2.42;1.02;;;29.90;84.70;;;;;;5033273;28;20049;-72
2022/08/04 12:48:12;;;;;;;3.67;1.25;;;29.90;85.40;;;;;;5033655;28;20052;-72
2022/08/04 12:50:41;;;;;;;4.18;1.15;;;30.20;84.80;;;;;;5051396;28;20060;-71
2022/08/04 12:53:13;;;;;;;4.22;1.25;;;30.60;84.50;;;;;;5052068;28;20107;-71
2022/08/04 12:55:48;;;;;;;5.90;1.20;;;31.10;82.70;;;;;;5051700;28;20175;-71
2022/08/04 12:58:18;;;;;;;8.13;1.50;;;31.40;81.80;;;;;;5034062;28;20060;-71
2022/08/04 13:00:53;;;;;;;4.20;1.05;;;31.30;81.40;;;;;;5034900;28;20056;-72
2022/08/04 13:03:27;;;;;;;2.92;1.05;;;31.30;80.70;;;;;;5036851;28;20489;-72
2022/08/04 13:05:55;;;;;;;6.40;1.50;;;31.10;81.30;;;;;;5055584;28;20045;-73
2022/08/04 13:08:23;;;;;;;1.35;0.70;;;31.20;81.60;;;;;;5037750;28;20045;-72
2022/08/04 13:10:53;;;;;;;1.80;0.80;;;31.30;81.30;;;;;;5015804;28;20106;-72
2022/08/04 13:13:21;;;;;;;;;;;31.40;81.00;;;;;;5026882;28;20130;-72
2022/08/04 13:15:58;;;;;;;3.42;1.10;;;31.20;81.30;;;;;;5055766;28;19925;-73
2022/08/04 13:18:29;;;;;;;5.25;1.08;;;31.00;82.40;;;;;;5054144;28;20060;-71
2022/08/04 13:20:57;;;;;;;5.40;1.23;;;30.90;83.00;;;;;;5037492;28;20053;-71
2022/08/04 13:23:27;;;;;;;4.32;0.98;;;30.90;82.70;;;;;;5037539;28;20045;-72
2022/08/04 13:25:56;;;;;;;4.20;1.00;;;31.20;82.30;;;;;;5036880;28;20515;-71
2022/08/04 13:28:26;;;;;;;3.42;0.80;;;31.80;81.80;;;;;;5037697;28;20049;-73